createdAt,value
2022-12-20T00:01:35.667Z,98268.78
2022-12-20T00:04:06.720Z,98264.97
2022-12-20T00:06:36.612Z,98268.34
2022-12-20T00:09:08.950Z,98274.38
2022-12-20T00:11:40.007Z,98268.22
2022-12-20T00:14:08.610Z,98268.66
2022-12-20T00:16:37.931Z,98268.66
2022-12-20T00:19:08.423Z,98265.91
2022-12-20T00:21:37.372Z,98268.06
2022-12-20T00:24:08.094Z,98262.81
2022-12-20T00:26:38.144Z,98264.59
2022-12-20T00:29:07.186Z,98261.78
2022-12-20T00:31:35.991Z,98272.06
2022-12-20T00:34:04.669Z,98284.00
2022-12-20T00:36:34.319Z,98270.66
2022-12-20T00:39:03.096Z,98266.50
2022-12-20T00:41:34.708Z,98258.44
2022-12-20T00:44:03.223Z,98248.38
2022-12-20T00:46:33.213Z,98255.19
2022-12-20T00:49:01.528Z,98245.31
2022-12-20T00:51:33.095Z,98233.84
2022-12-20T00:54:01.016Z,98240.81
2022-12-20T00:56:29.067Z,98272.72
2022-12-20T00:59:00.378Z,98273.16
2022-12-20T01:01:31.753Z,98272.59
2022-12-20T01:04:00.439Z,98264.34
2022-12-20T01:06:29.795Z,98268.34
2022-12-20T01:08:58.688Z,98266.03
2022-12-20T01:11:29.524Z,98272.72
2022-12-20T01:14:03.906Z,98270.72
2022-12-20T01:16:34.628Z,98270.69
2022-12-20T01:19:02.888Z,98256.09
2022-12-20T01:21:31.395Z,98255.78
2022-12-20T01:23:59.558Z,98246.03
2022-12-20T01:26:30.601Z,98249.72
2022-12-20T01:29:01.745Z,98245.09
2022-12-20T01:31:32.323Z,98244.00
2022-12-20T01:34:01.282Z,98249.81
2022-12-20T01:36:32.159Z,98247.88
2022-12-20T01:39:02.041Z,98256.19
2022-12-20T01:41:31.617Z,98255.66
2022-12-20T01:44:03.484Z,98254.38
2022-12-20T01:46:33.598Z,98237.28
2022-12-20T01:49:06.139Z,98236.34
2022-12-20T01:51:38.237Z,98220.47
2022-12-20T01:54:11.648Z,98218.63
2022-12-20T01:56:42.175Z,98212.09
2022-12-20T01:59:13.872Z,98205.13
2022-12-20T02:01:43.658Z,98201.91
2022-12-20T02:04:11.831Z,98205.91
2022-12-20T02:06:39.951Z,98215.88
2022-12-20T02:09:09.095Z,98208.13
2022-12-20T02:11:58.740Z,98206.75
2022-12-20T02:14:40.837Z,98198.44
2022-12-20T02:17:16.266Z,98206.81
2022-12-20T02:20:08.527Z,98187.50
2022-12-20T02:22:53.756Z,98196.00
2022-12-20T02:25:44.170Z,98217.13
2022-12-20T02:28:28.058Z,98231.50
2022-12-20T02:31:01.742Z,98238.34
2022-12-20T02:33:30.407Z,98226.94
2022-12-20T02:35:58.373Z,98214.91
2022-12-20T02:38:30.907Z,98211.81
2022-12-20T02:41:03.394Z,98211.66
2022-12-20T02:43:51.748Z,98199.66
2022-12-20T02:46:24.755Z,98193.63
2022-12-20T02:48:54.510Z,98207.31
2022-12-20T02:51:24.624Z,98195.69
2022-12-20T02:53:53.241Z,98165.44
2022-12-20T02:56:26.288Z,98175.06
2022-12-20T02:59:00.380Z,98166.22
2022-12-20T03:01:33.087Z,98158.97
2022-12-20T03:04:02.798Z,98158.66
2022-12-20T03:06:31.254Z,98160.81
2022-12-20T03:08:59.649Z,98151.09
2022-12-20T03:11:27.703Z,98135.69
2022-12-20T03:13:55.699Z,98137.66
2022-12-20T03:16:23.686Z,98145.97
2022-12-20T03:18:53.741Z,98139.59
2022-12-20T03:21:21.765Z,98125.78
2022-12-20T03:23:50.152Z,98110.09
2022-12-20T03:26:18.164Z,98115.09
2022-12-20T03:28:46.132Z,98120.91
2022-12-20T03:31:14.189Z,98121.03
2022-12-20T03:33:42.493Z,98142.06
2022-12-20T03:36:12.256Z,98163.31
2022-12-20T03:38:40.216Z,98170.69
2022-12-20T03:41:08.325Z,98163.28
2022-12-20T03:43:36.739Z,98179.22
2022-12-20T03:46:04.925Z,98184.63
2022-12-20T03:48:33.491Z,98171.06
2022-12-20T03:51:01.509Z,98169.50
2022-12-20T03:53:31.264Z,98179.97
2022-12-20T03:55:59.365Z,98173.44
2022-12-20T03:58:27.950Z,98185.34
2022-12-20T04:00:57.410Z,98171.16
2022-12-20T04:03:25.921Z,98178.34
2022-12-20T04:05:53.997Z,98156.38
2022-12-20T04:08:22.484Z,98181.13
2022-12-20T04:11:09.167Z,98178.44
2022-12-20T04:13:37.743Z,98179.03
2022-12-20T04:16:06.214Z,98169.06
2022-12-20T04:18:34.421Z,98164.31
2022-12-20T04:21:02.614Z,98160.09
2022-12-20T04:23:30.969Z,98157.31
2022-12-20T04:26:00.557Z,98143.19
2022-12-20T04:28:28.940Z,98133.78
2022-12-20T04:30:57.562Z,98134.34
2022-12-20T04:33:26.496Z,98125.06
2022-12-20T04:35:55.210Z,98111.16
2022-12-20T04:38:24.759Z,98111.72
2022-12-20T04:40:54.003Z,98108.94
2022-12-20T04:43:25.259Z,98106.75
2022-12-20T04:45:56.363Z,98117.66
2022-12-20T04:51:15.882Z,98116.13
2022-12-20T04:53:49.648Z,98110.00
2022-12-20T04:56:19.539Z,98132.03
2022-12-20T04:58:50.987Z,98123.78
2022-12-20T05:01:20.114Z,98112.09
2022-12-20T05:03:49.692Z,98095.81
2022-12-20T05:06:17.988Z,98080.41
2022-12-20T05:08:46.653Z,98095.59
2022-12-20T05:11:15.164Z,98077.84
2022-12-20T05:13:43.370Z,98093.97
2022-12-20T05:16:15.702Z,98069.38
2022-12-20T05:18:49.470Z,98092.56
2022-12-20T05:21:38.879Z,98111.88
2022-12-20T05:24:47.361Z,98120.69
2022-12-20T05:30:58.164Z,98105.84
2022-12-20T08:12:27.317Z,98071.78
2022-12-20T08:22:28.805Z,98055.78
2022-12-20T08:33:19.423Z,98011.50
2022-12-20T08:39:34.199Z,98034.25
2022-12-20T09:31:35.129Z,98032.31
2022-12-20T09:34:18.328Z,98045.66
2022-12-20T09:59:52.314Z,97996.63
2022-12-20T10:02:56.569Z,98019.59
2022-12-20T11:33:58.453Z,97880.50
2022-12-20T11:36:34.249Z,97890.00
2022-12-20T11:39:11.653Z,97883.28
2022-12-20T11:41:51.938Z,97901.78
2022-12-20T11:44:33.458Z,97890.31
2022-12-20T11:47:33.856Z,97861.56
2022-12-20T11:50:22.525Z,97854.47
2022-12-20T11:52:59.149Z,97880.69
2022-12-20T11:55:30.433Z,97863.03
2022-12-20T11:58:30.574Z,97856.97
2022-12-20T12:01:05.773Z,97856.31
2022-12-20T12:03:39.395Z,97841.53
2022-12-20T12:06:34.650Z,97884.25
2022-12-20T12:09:14.578Z,97849.88
2022-12-20T12:14:53.624Z,97856.81
2022-12-20T12:17:31.477Z,97834.69
2022-12-20T12:20:19.402Z,97793.66
2022-12-20T12:22:55.601Z,97797.94
2022-12-20T12:25:24.952Z,97813.59
2022-12-20T12:27:54.177Z,97806.75
2022-12-20T12:30:27.032Z,97796.03
2022-12-20T12:33:03.337Z,97792.50
2022-12-20T12:35:56.073Z,97817.53
2022-12-20T12:38:46.341Z,97808.19
2022-12-20T12:41:32.906Z,97805.19
2022-12-20T12:44:33.287Z,97790.69
2022-12-20T12:47:22.585Z,97780.31
2022-12-20T13:14:54.270Z,97792.97
2022-12-20T13:17:50.605Z,97787.69
2022-12-20T13:20:25.166Z,97756.34
2022-12-20T13:23:17.275Z,97783.31
2022-12-20T13:25:48.117Z,97792.16
2022-12-20T13:28:47.396Z,97774.47
2022-12-20T13:31:35.462Z,97783.53
2022-12-20T13:34:04.236Z,97772.06
2022-12-20T13:36:36.608Z,97774.28
2022-12-20T13:39:35.672Z,97775.59
2022-12-20T13:42:24.403Z,97767.44
2022-12-20T13:44:55.579Z,97756.44
2022-12-20T13:47:47.237Z,97758.19
2022-12-20T13:50:40.687Z,97757.78
2022-12-20T13:53:19.004Z,97755.13
2022-12-20T13:55:47.443Z,97758.03
2022-12-20T13:58:19.397Z,97763.84
2022-12-20T14:00:48.743Z,97758.09
2022-12-20T14:03:25.724Z,97764.56
2022-12-20T14:05:59.816Z,97761.78
2022-12-20T14:08:31.053Z,97772.25
2022-12-20T14:11:11.056Z,97770.06
2022-12-20T14:13:39.975Z,97770.31
2022-12-20T14:16:15.837Z,97772.78
2022-12-20T14:18:50.488Z,97776.16
2022-12-20T14:21:20.134Z,97767.50
2022-12-20T14:23:51.326Z,97765.88
2022-12-20T14:26:25.987Z,97767.63
2022-12-20T14:28:57.226Z,97767.50
2022-12-20T14:31:27.925Z,97779.78
2022-12-20T14:34:13.617Z,97782.88
2022-12-20T14:36:44.742Z,97778.34
2022-12-20T14:39:26.639Z,97780.88
2022-12-20T14:41:59.960Z,97771.31
2022-12-20T14:44:30.472Z,97775.03
2022-12-20T14:47:00.292Z,97765.00
2022-12-20T14:49:32.439Z,97752.22
2022-12-20T14:52:14.687Z,97743.41
2022-12-20T14:57:41.618Z,97733.28
2022-12-20T15:00:17.781Z,97732.59
2022-12-20T15:02:51.904Z,97720.25
2022-12-20T15:05:49.652Z,97716.53
2022-12-20T15:08:20.618Z,97716.19
2022-12-20T15:10:53.444Z,97712.31
2022-12-20T15:13:23.966Z,97711.03
2022-12-20T15:15:52.730Z,97707.63
2022-12-20T15:18:23.244Z,97701.56
2022-12-20T15:21:02.218Z,97693.75
2022-12-20T15:23:31.756Z,97698.22
2022-12-20T15:26:00.502Z,97714.88
2022-12-20T15:28:29.319Z,97723.75
2022-12-20T15:30:57.913Z,97719.41
2022-12-20T15:33:29.140Z,97728.63
2022-12-20T15:36:01.335Z,97718.44
2022-12-20T15:38:54.807Z,97717.19
2022-12-20T15:41:22.009Z,97713.97
2022-12-20T15:43:53.301Z,97713.34
2022-12-20T15:46:21.392Z,97706.22
2022-12-20T15:48:49.933Z,97700.66
2022-12-20T15:51:25.828Z,97713.53
2022-12-20T15:53:54.497Z,97699.66
2022-12-20T15:56:24.359Z,97703.94
2022-12-20T15:58:53.015Z,97706.00
2022-12-20T16:01:24.129Z,97712.56
2022-12-20T16:03:52.800Z,97696.66
2022-12-20T16:06:23.176Z,97696.63
2022-12-20T16:08:51.607Z,97686.44
2022-12-20T16:11:22.672Z,97687.59
2022-12-20T16:13:51.946Z,97688.00
2022-12-20T16:16:21.978Z,97697.28
2022-12-20T16:18:52.076Z,97691.66
2022-12-20T16:21:23.279Z,97681.41
2022-12-20T16:23:52.010Z,97676.56
2022-12-20T16:26:22.329Z,97669.94
2022-12-20T16:28:51.548Z,97657.13
2022-12-20T16:31:25.559Z,97701.47
2022-12-20T16:33:54.425Z,97702.34
2022-12-20T16:36:24.532Z,97698.75
2022-12-20T16:38:54.112Z,97694.06
2022-12-20T16:41:24.980Z,97681.41
2022-12-20T16:43:53.059Z,97698.56
2022-12-20T16:46:23.943Z,97706.97
2022-12-20T16:48:53.254Z,97713.84
2022-12-20T16:51:28.537Z,97715.72
2022-12-20T16:56:47.941Z,97692.94
2022-12-20T16:59:20.178Z,97688.63
2022-12-20T17:01:51.434Z,97687.03
2022-12-20T17:04:20.632Z,97681.41
2022-12-20T17:06:50.417Z,97686.66
2022-12-20T17:12:17.030Z,97671.19
2022-12-20T17:14:45.473Z,97663.13
2022-12-20T17:17:13.671Z,97646.56
2022-12-20T17:19:41.716Z,97658.00
2022-12-20T17:22:24.116Z,97658.28
2022-12-20T17:24:52.745Z,97646.56
2022-12-20T17:27:21.592Z,97626.03
2022-12-20T17:29:50.828Z,97617.97
2022-12-20T17:32:22.650Z,97627.03
2022-12-20T17:34:51.704Z,97617.91
2022-12-20T17:37:22.509Z,97627.34
2022-12-20T17:39:51.319Z,97632.63
2022-12-20T17:42:20.748Z,97634.59
2022-12-20T17:44:52.310Z,97641.50
2022-12-20T17:47:21.354Z,97635.00
2022-12-20T17:49:50.853Z,97635.28
2022-12-20T17:55:02.917Z,97638.22
2022-12-20T17:57:31.686Z,97650.81
2022-12-20T17:59:59.984Z,97630.66
2022-12-20T18:02:29.498Z,97645.91
2022-12-20T18:04:57.887Z,97642.50
2022-12-20T18:07:26.307Z,97636.88
2022-12-20T18:09:58.456Z,97643.28
2022-12-20T18:12:34.000Z,97664.50
2022-12-20T18:15:07.872Z,97674.38
2022-12-20T18:17:36.416Z,97674.47
2022-12-20T18:20:05.954Z,97652.34
2022-12-20T18:22:35.454Z,97657.00
2022-12-20T18:25:07.251Z,97677.53
2022-12-20T18:27:42.629Z,97681.56
2022-12-20T18:30:13.658Z,97698.13
2022-12-20T18:32:42.553Z,97690.25
2022-12-20T18:35:12.429Z,97708.44
2022-12-20T18:37:40.621Z,97707.34
2022-12-20T18:40:10.411Z,97712.97
2022-12-20T18:42:40.040Z,97710.75
2022-12-20T18:45:11.254Z,97693.09
2022-12-20T18:47:39.822Z,97696.06
2022-12-20T18:50:12.244Z,97690.59
2022-12-20T18:52:43.183Z,97691.81
2022-12-20T18:55:14.717Z,97688.31
2022-12-20T18:57:44.145Z,97673.22
2022-12-20T19:00:13.480Z,97665.19
2022-12-20T19:02:42.211Z,97647.97
2022-12-20T19:05:10.802Z,97641.03
2022-12-20T19:07:38.853Z,97641.53
2022-12-20T19:10:08.512Z,97626.91
2022-12-20T19:13:05.965Z,97618.88
2022-12-20T19:15:37.404Z,97621.63
2022-12-20T19:18:07.079Z,97626.44
2022-12-20T19:20:37.089Z,97607.06
2022-12-20T19:23:05.891Z,97588.66
2022-12-20T19:25:35.679Z,97588.56
2022-12-20T19:28:04.626Z,97584.78
2022-12-20T19:30:33.433Z,97582.91
2022-12-20T19:33:04.214Z,97572.19
2022-12-20T19:36:01.488Z,97572.59
2022-12-20T19:38:21.450Z,97574.53
2022-12-20T19:40:55.246Z,97603.97
2022-12-20T19:43:24.066Z,97604.50
2022-12-20T19:45:52.470Z,97602.00
2022-12-20T19:48:22.402Z,97594.16
2022-12-20T19:50:50.923Z,97604.47
2022-12-20T19:53:19.221Z,97605.13
2022-12-20T19:55:54.219Z,97593.88
2022-12-20T19:58:22.453Z,97588.53
2022-12-20T20:00:50.815Z,97609.34
2022-12-20T20:03:20.517Z,97597.31
2022-12-20T20:05:50.378Z,97591.13
2022-12-20T20:08:19.130Z,97588.41
2022-12-20T20:10:49.358Z,97577.97
2022-12-20T20:13:20.417Z,97579.16
2022-12-20T20:15:52.254Z,97578.47
2022-12-20T20:18:20.875Z,97581.13
2022-12-20T20:20:50.511Z,97574.53
2022-12-20T20:23:19.212Z,97561.72
2022-12-20T20:25:48.050Z,97555.31
2022-12-20T20:28:16.633Z,97554.66
2022-12-20T20:30:46.884Z,97560.13
2022-12-20T20:33:15.311Z,97554.66
2022-12-20T20:35:46.931Z,97567.13
2022-12-20T20:38:20.920Z,97578.34
2022-12-20T20:40:49.288Z,97575.69
2022-12-20T20:43:17.909Z,97580.28
2022-12-20T20:45:46.727Z,97564.69
2022-12-20T20:48:15.230Z,97572.94
2022-12-20T20:50:44.620Z,97577.22
2022-12-20T20:53:13.429Z,97578.81
2022-12-20T20:55:42.933Z,97569.84
2022-12-20T20:58:10.987Z,97561.00
2022-12-20T21:00:39.490Z,97570.66
2022-12-20T21:03:07.822Z,97574.69
2022-12-20T21:06:22.010Z,97567.81
2022-12-20T21:08:24.508Z,97563.56
2022-12-20T21:10:54.331Z,97573.41
2022-12-20T21:13:22.648Z,97571.03
2022-12-20T21:15:51.198Z,97554.22
2022-12-20T21:18:19.755Z,97549.63
2022-12-20T21:20:48.827Z,97561.31
2022-12-20T21:23:17.309Z,97557.50
2022-12-20T21:25:45.268Z,97546.44
2022-12-20T21:28:20.949Z,97542.06
2022-12-20T21:30:50.019Z,97566.84
2022-12-20T21:33:18.031Z,97582.72
2022-12-20T21:35:51.701Z,97572.56
2022-12-20T21:38:22.176Z,97577.44
2022-12-20T21:40:50.124Z,97571.59
2022-12-20T21:43:19.861Z,97563.44
2022-12-20T21:45:51.622Z,97560.53
2022-12-20T21:48:20.250Z,97560.53
2022-12-20T21:50:48.212Z,97570.50
2022-12-20T21:53:19.627Z,97567.47
2022-12-20T21:55:48.026Z,97562.38
2022-12-20T21:58:16.065Z,97562.69
2022-12-20T22:00:50.913Z,97555.16
2022-12-20T22:03:22.803Z,97559.47
2022-12-20T22:05:52.615Z,97555.69
2022-12-20T22:08:22.102Z,97559.28
2022-12-20T22:10:50.929Z,97559.78
2022-12-20T22:13:19.592Z,97558.69
2022-12-20T22:15:51.288Z,97557.38
2022-12-20T22:18:19.938Z,97561.16
2022-12-20T22:20:48.115Z,97556.84
2022-12-20T22:23:16.341Z,97569.66
2022-12-20T22:25:45.490Z,97561.88
2022-12-20T22:28:13.599Z,97571.06
2022-12-20T22:30:42.786Z,97571.81
2022-12-20T22:33:12.812Z,97567.81
2022-12-20T22:35:41.395Z,97563.81
2022-12-20T22:38:09.419Z,97566.97
2022-12-20T22:40:38.081Z,97568.59
2022-12-20T22:43:06.018Z,97574.25
2022-12-20T22:45:34.650Z,97582.34
2022-12-20T22:48:03.309Z,97578.03
2022-12-20T22:50:33.147Z,97565.75
2022-12-20T22:53:01.316Z,97556.09
2022-12-20T22:55:29.902Z,97557.25
2022-12-20T22:57:57.983Z,97559.34
2022-12-20T23:00:33.120Z,97541.91
2022-12-20T23:03:02.316Z,97546.69
2022-12-20T23:05:30.480Z,97559.00
2022-12-20T23:07:59.818Z,97565.06
2022-12-20T23:10:45.891Z,97556.56
2022-12-20T23:13:31.570Z,97554.69
2022-12-20T23:16:00.051Z,97556.03
2022-12-20T23:18:28.003Z,97546.28
2022-12-20T23:21:14.198Z,97560.16
2022-12-20T23:23:43.924Z,97562.03
2022-12-20T23:26:12.320Z,97564.41
2022-12-20T23:28:40.355Z,97569.09
2022-12-20T23:31:09.530Z,97563.03
2022-12-20T23:33:38.628Z,97556.50
2022-12-20T23:36:07.627Z,97562.66
2022-12-20T23:38:37.134Z,97538.97
2022-12-20T23:41:10.441Z,97546.53
2022-12-20T23:43:38.466Z,97544.84
2022-12-20T23:46:08.701Z,97539.50
2022-12-20T23:48:37.382Z,97537.06
2022-12-20T23:51:06.515Z,97548.56
2022-12-20T23:53:35.293Z,97534.25
2022-12-20T23:56:06.114Z,97533.16
2022-12-20T23:58:36.216Z,97517.56
